Flight Track Log - Related Links

Times and Time Zones

All times are in EDT time to prevent confusion due to time zone crossing. See the N626BG flight status page for this flight to view local times or setup timezone preferences in your user account.

Time Position Orientation Groundspeed Altitude Reporting Facility
EDT Latitude Longitude Course Direction KTS MPH feet Rate Location/Type
Sun 01:55:21 PM 38.8167 -76.1000 195° South 109 125 1,400  Level Potomac TRACON
Sun 01:56:34 PM 38.8350 -76.1219 317° Northwest 112 129 2,300 716 Climbing Washington Center
Sun 01:57:35 PM 38.8078 -76.1406 208° Southwest 123 142 3,000 689 Climbing Washington Center
Sun 01:58:36 PM 38.7786 -76.1589 206° Southwest 123 142 3,700 744 Climbing Washington Center
Sun 01:59:36 PM 38.7408 -76.1744 198° South 128 147 4,500 814 Climbing Washington Center
Sun 02:00:34 PM 38.7117 -76.1903 203° Southwest 128 147 5,300 763 Climbing Washington Center
Sun 02:01:00 PM 38.6331 -76.3179 195° South  Level Estimated
Sun 02:01:34 PM 38.6783 -76.2086 203° Southwest 128 147 6,000  Level Washington Center
Sun 02:02:35 PM 38.6428 -76.2269 202° Southwest 128 147 6,800 744 Climbing Washington Center
Sun 02:03:35 PM 38.6133 -76.2400 199° South 128 147 7,500 706 Climbing Washington Center
Sun 02:04:34 PM 38.5800 -76.2583 203° Southwest 128 147 8,200 706 Climbing Washington Center
Sun 02:05:34 PM 38.5467 -76.2739 200° South 128 147 8,900 645 Climbing Washington Center
Sun 02:06:35 PM 38.5131 -76.2894 200° South 128 147 9,500 645 Climbing Washington Center
Sun 02:07:35 PM 38.4797 -76.3078 203° Southwest 128 147 10,200 645 Climbing Washington Center
Sun 02:08:36 PM 38.4442 -76.3261 202° Southwest 133 153 10,800 605 Climbing Washington Center
Sun 02:09:34 PM 38.4086 -76.3414 199° South 133 153 11,400 605 Climbing Washington Center
Sun 02:10:35 PM 38.3731 -76.3597 202° Southwest 133 153 12,000 298 Climbing Washington Center
Sun 02:11:35 PM 38.3333 -76.3806 202° Southwest 139 160 12,000  Level Washington Center
Sun 02:12:35 PM 38.2872 -76.3986 197° South 157 181 12,000  Level Washington Center
Sun 02:13:35 PM 38.2578 -76.4406 228° Southwest 157 181 12,000  Level Washington Center
Sun 02:14:36 PM 38.2261 -76.4825 226° Southwest 162 186 12,000  Level Washington Center
Sun 02:15:34 PM 38.1944 -76.5269 228° Southwest 167 192 12,000  Level Washington Center
Sun 02:16:35 PM 38.1672 -76.5689 230° Southwest 167 192 12,000  Level Washington Center
Sun 02:17:36 PM 38.1356 -76.6133 228° Southwest 167 192 12,000  Level Washington Center
Sun 02:18:34 PM 38.1058 -76.6525 226° Southwest 167 192 12,000  Level Washington Center
Sun 02:19:35 PM 38.0764 -76.6969 230° Southwest 167 192 12,000  Level Washington Center
Sun 02:20:35 PM 38.0447 -76.7386 226° Southwest 167 192 12,000  Level Washington Center
Sun 02:21:36 PM 38.0131 -76.7803 226° Southwest 167 192 12,000  Level Washington Center
Sun 02:22:34 PM 37.9833 -76.8222 228° Southwest 162 186 12,000  Level Washington Center
Sun 02:23:35 PM 37.9517 -76.8636 226° Southwest 162 186 12,000  Level Washington Center
Sun 02:24:36 PM 37.9158 -76.9000 219° Southwest 167 192 12,000  Level Washington Center
Sun 02:25:34 PM 37.8800 -76.9361 219° Southwest 167 192 12,000  Level Washington Center
Sun 02:26:34 PM 37.8461 -76.9725 220° Southwest 167 192 12,000  Level Washington Center
Sun 02:27:35 PM 37.8103 -77.0058 216° Southwest 162 186 12,000  Level Washington Center
Sun 02:28:35 PM 37.7786 -77.0447 224° Southwest 162 186 12,000  Level Washington Center
Sun 02:29:34 PM 37.7428 -77.0731 212° Southwest 162 186 12,000  Level Washington Center
Sun 02:30:34 PM 37.7089 -77.1089 220° Southwest 162 186 12,000  Level Washington Center
Sun 02:31:35 PM 37.6731 -77.1450 219° Southwest 162 186 12,000  Level Washington Center
Sun 02:32:35 PM 37.6372 -77.1836 220° Southwest 162 186 12,000  Level Washington Center
Sun 02:33:36 PM 37.6033 -77.2197 220° Southwest 162 186 12,000  Level Washington Center
Sun 02:34:36 PM 37.5672 -77.2556 218° Southwest 162 186 12,000  Level Washington Center
Sun 02:35:34 PM 37.5314 -77.2914 218° Southwest 162 186 12,000  Level Washington Center
Sun 02:36:35 PM 37.4975 -77.3272 220° Southwest 162 186 12,000  Level Washington Center
Sun 02:37:35 PM 37.4758 -77.3767 241° Southwest 157 181 12,000  Level Washington Center
Sun 02:39:36 PM 37.4286 -77.4747 239° Southwest 162 186 12,000 -33 Level Washington Center
Sun 02:40:36 PM 37.4047 -77.5214 237° Southwest 167 192 11,900 -51 Descending Washington Center
Sun 02:41:34 PM 37.3831 -77.5703 241° Southwest 167 192 11,900  Level Washington Center
Sun 02:42:34 PM 37.3614 -77.6169 240° Southwest 162 186 11,900  Level Washington Center
Sun 02:43:35 PM 37.3378 -77.6658 239° Southwest 162 186 11,900  Level Washington Center
Sun 02:44:35 PM 37.3161 -77.7097 238° Southwest 162 186 11,900  Level Washington Center
Sun 02:45:35 PM 37.2922 -77.7586 238° Southwest 167 192 11,900  Level Washington Center
Sun 02:46:36 PM 37.2706 -77.8050 240° Southwest 167 192 11,900  Level Washington Center
Sun 02:47:36 PM 37.2467 -77.8539 238° Southwest 162 186 11,900  Level Washington Center
Sun 02:48:34 PM 37.2250 -77.9003 240° Southwest 162 186 11,900  Level Washington Center
Sun 02:49:34 PM 37.2011 -77.9464 237° Southwest 162 186 11,900  Level Washington Center
Sun 02:50:35 PM 37.1794 -77.9928 240° Southwest 162 186 11,900  Level Washington Center
Sun 02:51:35 PM 37.1533 -78.0439 237° Southwest 167 192 11,900  Level Washington Center
Sun 02:52:36 PM 37.1314 -78.0903 239° Southwest 167 192 11,900  Level Washington Center
Sun 02:53:34 PM 37.1097 -78.1389 241° Southwest 167 192 11,900  Level Washington Center
Sun 02:54:35 PM 37.0878 -78.1878 241° Southwest 167 192 11,900  Level Washington Center
Sun 02:55:34 PM 37.0658 -78.2311 238° Southwest 167 192 11,900  Level Washington Center
Sun 02:56:34 PM 37.0419 -78.2772 237° Southwest 167 192 11,900  Level Washington Center
Sun 02:57:35 PM 37.0200 -78.3258 241° Southwest 167 192 11,900  Level Washington Center
Sun 02:58:36 PM 36.9958 -78.3719 237° Southwest 167 192 11,900  Level Washington Center
Sun 02:59:34 PM 36.9697 -78.4256 239° Southwest 167 192 11,900 50 Level Washington Center
Sun 03:00:35 PM 36.9456 -78.4714 237° Southwest 162 186 12,000 49 Climbing Washington Center
Sun 03:01:36 PM 36.9214 -78.5197 238° Southwest 167 192 12,000  Level Washington Center
Sun 03:02:34 PM 36.8994 -78.5683 241° Southwest 162 186 12,000  Level Washington Center
Sun 03:03:34 PM 36.8775 -78.6092 236° Southwest 162 186 12,000  Level Washington Center
Sun 03:04:35 PM 36.8533 -78.6575 238° Southwest 162 186 12,000  Level Washington Center
Sun 03:05:37 PM 36.8292 -78.7058 238° Southwest 162 186 12,000  Level Washington Center
Sun 03:06:34 PM 36.8069 -78.7542 240° Southwest 162 186 12,000  Level Washington Center
Sun 03:07:35 PM 36.7806 -78.8050 237° Southwest 162 186 12,000  Level Washington Center
Sun 03:08:35 PM 36.7564 -78.8506 236° Southwest 162 186 12,000 -50 Level Washington Center
Sun 03:09:36 PM 36.7342 -78.8989 240° Southwest 162 186 11,900  Descending Washington Center
Sun 03:10:36 PM 36.7100 -78.9444 237° Southwest 162 186 12,000 51 Climbing Washington Center
Sun 03:11:34 PM 36.6878 -78.9903 239° Southwest 162 186 12,000  Level Washington Center
Sun 03:12:34 PM 36.6617 -79.0356 234° Southwest 162 186 12,000  Level Washington Center
Sun 03:13:35 PM 36.6331 -79.0836 233° Southwest 170 196 12,000 -50 Level Washington Center
Sun 03:14:34 PM 36.6047 -79.1264 230° Southwest 170 196 11,900 -50 Descending Washington Center
Sun 03:15:34 PM 36.5742 -79.1714 230° Southwest 170 196 11,900 -198 Level Washington Center
Sun 03:16:35 PM 36.5433 -79.2192 231° Southwest 170 196 11,500 -443 Descending Washington Center
Sun 03:17:36 PM 36.5106 -79.2694 231° Southwest 180 207 11,000 -504 Descending Washington Center
Sun 03:18:34 PM 36.4800 -79.3169 231° Southwest 180 207 10,500 -272 Descending Washington Center
Sun 03:20:00 PM 36.4345 -79.3682 232° Southwest  Level FlightAware Approximate
Sun 03:27:00 PM 36.2436 -79.6518 231° Southwest  Level FlightAware Approximate
Sun 03:28:00 PM 36.2166 -79.6925 230° Southwest  Level FlightAware Approximate
Sun 03:29:00 PM 36.1895 -79.7332 230° Southwest  Level FlightAware Approximate
Sun 03:30:00 PM 36.1624 -79.7738 230° Southwest  Level FlightAware Approximate
Sun 03:31:00 PM 36.1353 -79.8144 230° Southwest  Level FlightAware Approximate
Sun 03:32:00 PM 36.1081 -79.8550 230° Southwest  Level FlightAware Approximate
Sun 03:33:00 PM 36.0810 -79.8956 230° Southwest  Level FlightAware Approximate
Sun 03:34:00 PM 36.0538 -79.9361 230° Southwest  Level FlightAware Approximate
Sun 03:35:00 PM 36.0251 -79.9746 218° Southwest  Level FlightAware Approximate
Sun 03:43:22 PM 35.7014 -80.3103 218° Southwest 152 175 4,000  Level Atlanta Center
Sun 03:44:17 PM 35.6708 -80.3372 216° Southwest 152 175 4,000  Level Atlanta Center
Sun 03:45:24 PM 35.6303 -80.3750 217° Southwest 150 173 4,000  Level Atlanta Center
Sun 03:46:25 PM 35.5978 -80.4069 219° Southwest 154 177 4,000  Level Atlanta Center
Sun 03:47:20 PM 35.5717 -80.4389 225° Southwest 157 181 4,000  Level Atlanta Center
Sun 03:48:21 PM 35.5689 -80.4925 266° West 157 181 4,000  Level Atlanta Center
Sun 03:49:22 PM 35.5642 -80.5464 264° West 158 182 4,000  Level Atlanta Center
Sun 03:50:28 PM 35.5164 -80.5458 179° South 154 177 4,000  Level Atlanta Center
Sun 03:51:29 PM 35.4789 -80.5475 182° South 147 169 4,000 -281 Level Atlanta Center
Sun 03:52:36 PM 35.4333 -80.5594 192° South 148 170 3,400 -469 Descending Atlanta Center
Sun 03:53:37 PM 35.3917 -80.5714 193° South 149 171 3,000 -207 Descending Atlanta Center
Sun 03:54:32 PM 35.3653 -80.5931 214° Southwest 129 148 3,000  Level Atlanta Center
Sun 03:55:33 PM 35.3453 -80.6244 232° Southwest 123 142 3,000 -234 Level Atlanta Center
Sun 03:56:40 PM 35.3425 -80.6728 266° West 128 147 2,500 -541 Descending Atlanta Center
Sun 03:57:35 PM 35.3372 -80.7111 260° West 129 148 1,900 -569 Descending Atlanta Center
Sun 03:58:36 PM 35.3561 -80.7181 343° North 94 108 1,400 -397 Descending Atlanta Center
Sun 03:59:36 PM 35.3728 -80.7175 North 81 93 1,100 -300 Descending Atlanta Center

Login

Don't have an account? Register now (free) for customized features, flight alerts, and more!